Terminal Aerodrome Forecast
Issued by NWS Wakefield, VA

Home | Current Version | Previous Version | Text Only | Print | Product List | Glossary On
Versions: 1 2 3 4 5 6 7 8 9 10 11 12 13 14 15 16 17 18 19 20 21
948
FTUS41 KAKQ 030019 AAA
TAFORF
TAF AMD
KORF 030019Z 0300/0324 20013KT P6SM SCT040 BKN120
      TEMPO 0300/0302 VRB20G35KT 1/2SM TSRAGR OVC010CB
     FM030200 21011KT 5SM RA BR VCTS BKN040CB BKN100
     FM030500 21011KT 3SM SHRA BKN020 OVC070
     FM031000 24012KT 2SM -SHRA OVC015
     FM032000 25011KT P6SM SCT015 BKN035=

USA.gov is the U.S. government's official web portal to all federal, state and local government web resources and services.